RYR97MQ EBCI-EGCC
Flight info
| Callsign | RYR97MQ |
|---|---|
| Flight time | 0h 56m |
| Altitude | 34000 |
| Route | CIV UY50 LUMEN L610 LAM UN57 WELIN T420 ELVOS |
| Aircraft | B38M/M-SDE1FGHILORVWXY/HB1 |
Departure
| Time | 2026-04-30 19:14 |
|---|---|
| Airport | Brussels South Charleroi Airport (EBCI) |
Arrival
| Time | 2026-04-30 20:11 |
|---|---|
| Airport | Manchester Airport (EGCC) |
| Time | Latitude | Longitude | Altitude | Speed | Heading |
|---|---|---|---|---|---|
| 2026-04-30 18:38 | 50.46815 | 4.46934 | 614 ft | 0 kts | 334° |
| 2026-04-30 19:00 | 50.46813 | 4.46936 | 625 ft | 2 kts | 333° |
| 2026-04-30 19:00 | 50.46785 | 4.46973 | 627 ft | 3 kts | 294° |
| 2026-04-30 19:01 | 50.46784 | 4.47015 | 626 ft | 0 kts | 245° |
| 2026-04-30 19:08 | 50.46775 | 4.46983 | 614 ft | 5 kts | 245° |
| 2026-04-30 19:08 | 50.46753 | 4.46907 | 625 ft | 10 kts | 245° |
| 2026-04-30 19:09 | 50.46653 | 4.46794 | 625 ft | 11 kts | 156° |
| 2026-04-30 19:09 | 50.46592 | 4.46748 | 619 ft | 12 kts | 242° |
| 2026-04-30 19:09 | 50.46554 | 4.46623 | 618 ft | 14 kts | 245° |
| 2026-04-30 19:10 | 50.46464 | 4.46314 | 628 ft | 18 kts | 245° |
| 2026-04-30 19:10 | 50.46351 | 4.45924 | 625 ft | 21 kts | 246° |
| 2026-04-30 19:11 | 50.46287 | 4.45701 | 629 ft | 23 kts | 245° |
| 2026-04-30 19:11 | 50.46143 | 4.45205 | 628 ft | 26 kts | 245° |
| 2026-04-30 19:11 | 50.46066 | 4.44938 | 634 ft | 27 kts | 245° |
| 2026-04-30 19:12 | 50.46001 | 4.44714 | 638 ft | 13 kts | 245° |
| 2026-04-30 19:12 | 50.45961 | 4.44577 | 638 ft | 14 kts | 245° |
| 2026-04-30 19:12 | 50.45921 | 4.44456 | 634 ft | 13 kts | 237° |
| 2026-04-30 19:13 | 50.45797 | 4.44201 | 634 ft | 17 kts | 232° |
| 2026-04-30 19:13 | 50.45661 | 4.43982 | 636 ft | 10 kts | 172° |
| 2026-04-30 19:13 | 50.45628 | 4.44048 | 635 ft | 6 kts | 69° |
| 2026-04-30 19:14 | 50.45650 | 4.44123 | 639 ft | 11 kts | 65° |
| 2026-04-30 19:14 | 50.45795 | 4.44630 | 639 ft | 98 kts | 65° |
| 2026-04-30 19:14 | 50.46199 | 4.46018 | 722 ft | 172 kts | 67° |
| 2026-04-30 19:14 | 50.46720 | 4.47806 | 1710 ft | 188 kts | 69° |
| 2026-04-30 19:15 | 50.47339 | 4.49664 | 2461 ft | 196 kts | 64° |
| 2026-04-30 19:15 | 50.49090 | 4.53402 | 3888 ft | 227 kts | 57° |
| 2026-04-30 19:15 | 50.50142 | 4.55348 | 4672 ft | 239 kts | 53° |
| 2026-04-30 19:16 | 50.51310 | 4.57193 | 5620 ft | 244 kts | 45° |
| 2026-04-30 19:16 | 50.52753 | 4.58588 | 6660 ft | 248 kts | 26° |
| 2026-04-30 19:16 | 50.56339 | 4.59065 | 8129 ft | 273 kts | 351° |
| 2026-04-30 19:17 | 50.58141 | 4.58053 | 9009 ft | 276 kts | 331° |
| 2026-04-30 19:17 | 50.60076 | 4.53353 | 10850 ft | 271 kts | 270° |
| 2026-04-30 19:17 | 50.59815 | 4.50360 | 11291 ft | 285 kts | 255° |
| 2026-04-30 19:18 | 50.59335 | 4.44894 | 11993 ft | 320 kts | 263° |
| 2026-04-30 19:18 | 50.59125 | 4.40130 | 12771 ft | 337 kts | 265° |
| 2026-04-30 19:18 | 50.59000 | 4.36433 | 13670 ft | 340 kts | 265° |
| 2026-04-30 19:19 | 50.58882 | 4.32695 | 14469 ft | 345 kts | 266° |
| 2026-04-30 19:19 | 50.58773 | 4.28896 | 15277 ft | 348 kts | 266° |
| 2026-04-30 19:19 | 50.59221 | 4.21280 | 16852 ft | 359 kts | 293° |
| 2026-04-30 19:20 | 50.60541 | 4.17927 | 17582 ft | 364 kts | 309° |
| 2026-04-30 19:20 | 50.62176 | 4.14836 | 18300 ft | 370 kts | 310° |
| 2026-04-30 19:20 | 50.65504 | 4.08628 | 19609 ft | 377 kts | 310° |
| 2026-04-30 19:21 | 50.67195 | 4.05447 | 20251 ft | 381 kts | 310° |
| 2026-04-30 19:21 | 50.70618 | 3.98969 | 21498 ft | 388 kts | 310° |
| 2026-04-30 19:22 | 50.74081 | 3.92349 | 22713 ft | 394 kts | 310° |
| 2026-04-30 19:22 | 50.79360 | 3.82144 | 24369 ft | 405 kts | 310° |
| 2026-04-30 19:23 | 50.84757 | 3.71766 | 25817 ft | 414 kts | 310° |
| 2026-04-30 19:24 | 50.88470 | 3.64706 | 26765 ft | 420 kts | 310° |
| 2026-04-30 19:24 | 50.90343 | 3.61148 | 27233 ft | 423 kts | 310° |
| 2026-04-30 19:24 | 50.94141 | 3.53939 | 28160 ft | 429 kts | 310° |
| 2026-04-30 19:25 | 50.99936 | 3.42947 | 29496 ft | 437 kts | 310° |
| 2026-04-30 19:26 | 51.03841 | 3.35544 | 30329 ft | 443 kts | 310° |
| 2026-04-30 19:26 | 51.07791 | 3.27968 | 31038 ft | 448 kts | 309° |
| 2026-04-30 19:26 | 51.09767 | 3.24105 | 31374 ft | 451 kts | 309° |
| 2026-04-30 19:27 | 51.13736 | 3.16326 | 32104 ft | 455 kts | 309° |
| 2026-04-30 19:27 | 51.17732 | 3.08468 | 32802 ft | 459 kts | 309° |
| 2026-04-30 19:28 | 51.19744 | 3.04500 | 33142 ft | 461 kts | 309° |
| 2026-04-30 19:28 | 51.23756 | 2.96569 | 33885 ft | 463 kts | 309° |
| 2026-04-30 19:29 | 51.27792 | 2.88566 | 34256 ft | 462 kts | 309° |
| 2026-04-30 19:30 | 51.35589 | 2.72515 | 34199 ft | 455 kts | 287° |
| 2026-04-30 19:31 | 51.38005 | 2.52643 | 34218 ft | 458 kts | 279° |
| 2026-04-30 19:31 | 51.39825 | 2.37652 | 34224 ft | 458 kts | 279° |
| 2026-04-30 19:32 | 51.41029 | 2.27648 | 34217 ft | 457 kts | 279° |
| 2026-04-30 19:32 | 51.42246 | 2.17672 | 34219 ft | 457 kts | 279° |
| 2026-04-30 19:33 | 51.43454 | 2.07735 | 34220 ft | 457 kts | 279° |
| 2026-04-30 19:33 | 51.44655 | 1.97733 | 34218 ft | 457 kts | 279° |
| 2026-04-30 19:34 | 51.45837 | 1.87717 | 34222 ft | 458 kts | 278° |
| 2026-04-30 19:35 | 51.47586 | 1.72626 | 34218 ft | 459 kts | 278° |
| 2026-04-30 19:35 | 51.48735 | 1.62620 | 34216 ft | 459 kts | 278° |
| 2026-04-30 19:36 | 51.49882 | 1.52544 | 34213 ft | 459 kts | 278° |
| 2026-04-30 19:36 | 51.51584 | 1.37436 | 34219 ft | 459 kts | 277° |
| 2026-04-30 19:37 | 51.52710 | 1.27343 | 34218 ft | 459 kts | 277° |
| 2026-04-30 19:37 | 51.53819 | 1.17323 | 34227 ft | 459 kts | 277° |
| 2026-04-30 19:38 | 51.54927 | 1.07229 | 34225 ft | 459 kts | 277° |
| 2026-04-30 19:38 | 51.56023 | 0.97151 | 34218 ft | 459 kts | 277° |
| 2026-04-30 19:39 | 51.57111 | 0.87070 | 34206 ft | 457 kts | 276° |
| 2026-04-30 19:39 | 51.58188 | 0.77003 | 34212 ft | 457 kts | 276° |
| 2026-04-30 19:40 | 51.59251 | 0.66986 | 34210 ft | 457 kts | 276° |
| 2026-04-30 19:40 | 51.60311 | 0.56903 | 34210 ft | 457 kts | 276° |
| 2026-04-30 19:41 | 51.61363 | 0.46813 | 34222 ft | 457 kts | 276° |
| 2026-04-30 19:41 | 51.62399 | 0.36789 | 34208 ft | 453 kts | 276° |
| 2026-04-30 19:42 | 51.63424 | 0.26783 | 34212 ft | 453 kts | 276° |
| 2026-04-30 19:42 | 51.64770 | 0.16934 | 34198 ft | 458 kts | 291° |
| 2026-04-30 19:43 | 51.66387 | 0.12504 | 34223 ft | 462 kts | 304° |
| 2026-04-30 19:43 | 51.68388 | 0.08428 | 34201 ft | 465 kts | 307° |
| 2026-04-30 19:44 | 51.75139 | -0.02793 | 34265 ft | 466 kts | 316° |
| 2026-04-30 19:44 | 51.79797 | -0.09944 | 34254 ft | 465 kts | 313° |
| 2026-04-30 19:45 | 51.84353 | -0.17357 | 34208 ft | 464 kts | 312° |
| 2026-04-30 19:45 | 51.88864 | -0.24835 | 34211 ft | 464 kts | 312° |
| 2026-04-30 19:46 | 51.93327 | -0.32269 | 34215 ft | 448 kts | 312° |
| 2026-04-30 19:46 | 51.95459 | -0.35829 | 34216 ft | 434 kts | 312° |
| 2026-04-30 19:46 | 51.97537 | -0.39303 | 34122 ft | 424 kts | 312° |
| 2026-04-30 19:46 | 51.99561 | -0.42693 | 33493 ft | 425 kts | 312° |
| 2026-04-30 19:47 | 52.01631 | -0.46165 | 32629 ft | 433 kts | 312° |
| 2026-04-30 19:47 | 52.03054 | -0.48553 | 32035 ft | 438 kts | 312° |
| 2026-04-30 19:47 | 52.05890 | -0.53321 | 30880 ft | 448 kts | 312° |
| 2026-04-30 19:47 | 52.08069 | -0.56990 | 29991 ft | 454 kts | 312° |
| 2026-04-30 19:48 | 52.10280 | -0.60721 | 28990 ft | 461 kts | 312° |
| 2026-04-30 19:48 | 52.12508 | -0.64485 | 28271 ft | 461 kts | 312° |
| 2026-04-30 19:48 | 52.14710 | -0.68210 | 27920 ft | 452 kts | 312° |
| 2026-04-30 19:48 | 52.16865 | -0.71861 | 27544 ft | 444 kts | 312° |
| 2026-04-30 19:49 | 52.18969 | -0.75432 | 27081 ft | 440 kts | 312° |
| 2026-04-30 19:49 | 52.23162 | -0.82560 | 26204 ft | 431 kts | 312° |
| 2026-04-30 19:49 | 52.25345 | -0.85893 | 25725 ft | 430 kts | 324° |
| 2026-04-30 19:50 | 52.27910 | -0.88387 | 25291 ft | 427 kts | 328° |
| 2026-04-30 19:50 | 52.30436 | -0.90892 | 24918 ft | 422 kts | 328° |
| 2026-04-30 19:50 | 52.32931 | -0.93382 | 24509 ft | 419 kts | 328° |
| 2026-04-30 19:50 | 52.35413 | -0.95857 | 24101 ft | 417 kts | 328° |
| 2026-04-30 19:51 | 52.37880 | -0.98320 | 23676 ft | 414 kts | 328° |
| 2026-04-30 19:51 | 52.40335 | -1.00774 | 23208 ft | 412 kts | 328° |
| 2026-04-30 19:51 | 52.42739 | -1.03179 | 22759 ft | 409 kts | 328° |
| 2026-04-30 19:51 | 52.45154 | -1.05598 | 22348 ft | 405 kts | 328° |
| 2026-04-30 19:52 | 52.47545 | -1.07996 | 21942 ft | 402 kts | 328° |
| 2026-04-30 19:52 | 52.49920 | -1.10382 | 21512 ft | 399 kts | 328° |
| 2026-04-30 19:52 | 52.52280 | -1.12757 | 21097 ft | 396 kts | 328° |
| 2026-04-30 19:52 | 52.54617 | -1.15110 | 20719 ft | 392 kts | 328° |
| 2026-04-30 19:53 | 52.56938 | -1.17449 | 20282 ft | 391 kts | 328° |
| 2026-04-30 19:53 | 52.59248 | -1.19779 | 19880 ft | 388 kts | 328° |
| 2026-04-30 19:53 | 52.61539 | -1.22094 | 19493 ft | 386 kts | 328° |
| 2026-04-30 19:53 | 52.63818 | -1.24398 | 19118 ft | 383 kts | 328° |
| 2026-04-30 19:54 | 52.66053 | -1.26662 | 18743 ft | 381 kts | 328° |
| 2026-04-30 19:54 | 52.68303 | -1.28943 | 18375 ft | 379 kts | 328° |
| 2026-04-30 19:54 | 52.70537 | -1.31212 | 17895 ft | 378 kts | 328° |
| 2026-04-30 19:54 | 52.72768 | -1.33483 | 17513 ft | 374 kts | 328° |
| 2026-04-30 19:55 | 52.74974 | -1.35730 | 17287 ft | 371 kts | 328° |
| 2026-04-30 19:55 | 52.77156 | -1.37955 | 16923 ft | 367 kts | 327° |
| 2026-04-30 19:55 | 52.79317 | -1.40162 | 16556 ft | 364 kts | 327° |
| 2026-04-30 19:55 | 52.81463 | -1.42355 | 16200 ft | 361 kts | 327° |
| 2026-04-30 19:56 | 52.83591 | -1.44533 | 15841 ft | 359 kts | 327° |
| 2026-04-30 19:56 | 52.85677 | -1.46671 | 15490 ft | 356 kts | 327° |
| 2026-04-30 19:56 | 52.87778 | -1.48826 | 15145 ft | 354 kts | 327° |
| 2026-04-30 19:56 | 52.89869 | -1.50974 | 14798 ft | 352 kts | 328° |
| 2026-04-30 19:57 | 52.91948 | -1.53111 | 14457 ft | 351 kts | 327° |
| 2026-04-30 19:57 | 52.94016 | -1.55240 | 14099 ft | 350 kts | 327° |
| 2026-04-30 19:57 | 52.96080 | -1.57367 | 13708 ft | 348 kts | 327° |
| 2026-04-30 19:57 | 52.98131 | -1.59483 | 13330 ft | 346 kts | 327° |
| 2026-04-30 19:58 | 53.00166 | -1.61585 | 12972 ft | 343 kts | 327° |
| 2026-04-30 19:58 | 53.02184 | -1.63671 | 12633 ft | 341 kts | 327° |
| 2026-04-30 19:58 | 53.04188 | -1.65746 | 12291 ft | 338 kts | 327° |
| 2026-04-30 19:58 | 53.05234 | -1.66906 | 12096 ft | 336 kts | 320° |
| 2026-04-30 19:59 | 53.06624 | -1.69303 | 11762 ft | 332 kts | 307° |
| 2026-04-30 19:59 | 53.08107 | -1.72223 | 11448 ft | 329 kts | 308° |
| 2026-04-30 19:59 | 53.11064 | -1.77967 | 10773 ft | 325 kts | 308° |
| 2026-04-30 20:00 | 53.12539 | -1.80829 | 10398 ft | 325 kts | 308° |
| 2026-04-30 20:00 | 53.14003 | -1.83676 | 10056 ft | 323 kts | 308° |
| 2026-04-30 20:00 | 53.15459 | -1.86507 | 9709 ft | 320 kts | 308° |
| 2026-04-30 20:00 | 53.16895 | -1.89306 | 9381 ft | 318 kts | 308° |
| 2026-04-30 20:01 | 53.19724 | -1.94824 | 8737 ft | 312 kts | 308° |
| 2026-04-30 20:01 | 53.21128 | -1.97567 | 8414 ft | 310 kts | 308° |
| 2026-04-30 20:01 | 53.22523 | -2.00295 | 8097 ft | 307 kts | 308° |
| 2026-04-30 20:02 | 53.23910 | -2.06629 | 7351 ft | 291 kts | 265° |
| 2026-04-30 20:02 | 53.23921 | -2.09945 | 7005 ft | 280 kts | 267° |
| 2026-04-30 20:03 | 53.23997 | -2.16199 | 6264 ft | 263 kts | 266° |
| 2026-04-30 20:03 | 53.23924 | -2.19185 | 5883 ft | 253 kts | 258° |
| 2026-04-30 20:03 | 53.23690 | -2.22053 | 5542 ft | 245 kts | 257° |
| 2026-04-30 20:03 | 53.23416 | -2.24792 | 5283 ft | 234 kts | 255° |
| 2026-04-30 20:04 | 53.22968 | -2.27314 | 5041 ft | 221 kts | 246° |
| 2026-04-30 20:04 | 53.22441 | -2.29673 | 4782 ft | 212 kts | 244° |
| 2026-04-30 20:04 | 53.21910 | -2.31922 | 4539 ft | 205 kts | 243° |
| 2026-04-30 20:05 | 53.20782 | -2.36124 | 4035 ft | 193 kts | 240° |
| 2026-04-30 20:05 | 53.20246 | -2.38132 | 3777 ft | 191 kts | 240° |
| 2026-04-30 20:05 | 53.19778 | -2.42528 | 3207 ft | 200 kts | 273° |
| 2026-04-30 20:06 | 53.20306 | -2.44674 | 3052 ft | 200 kts | 300° |
| 2026-04-30 20:06 | 53.21298 | -2.46288 | 3001 ft | 198 kts | 321° |
| 2026-04-30 20:06 | 53.22502 | -2.47303 | 3004 ft | 194 kts | 353° |
| 2026-04-30 20:06 | 53.23816 | -2.47188 | 2971 ft | 188 kts | 17° |
| 2026-04-30 20:07 | 53.25012 | -2.46610 | 2776 ft | 167 kts | 30° |
| 2026-04-30 20:07 | 53.26005 | -2.45762 | 2619 ft | 156 kts | 44° |
| 2026-04-30 20:07 | 53.27673 | -2.43510 | 2420 ft | 150 kts | 57° |
| 2026-04-30 20:08 | 53.28374 | -2.42243 | 2292 ft | 141 kts | 61° |
| 2026-04-30 20:08 | 53.29005 | -2.40954 | 2134 ft | 144 kts | 63° |
| 2026-04-30 20:08 | 53.29602 | -2.39631 | 1969 ft | 141 kts | 64° |
| 2026-04-30 20:08 | 53.30191 | -2.38340 | 1825 ft | 136 kts | 63° |
| 2026-04-30 20:09 | 53.30787 | -2.37092 | 1665 ft | 141 kts | 60° |
| 2026-04-30 20:09 | 53.31367 | -2.35837 | 1470 ft | 132 kts | 62° |
| 2026-04-30 20:09 | 53.32527 | -2.33395 | 991 ft | 138 kts | 56° |
| 2026-04-30 20:10 | 53.33738 | -2.30872 | 576 ft | 142 kts | 53° |
| 2026-04-30 20:10 | 53.34352 | -2.29621 | 397 ft | 134 kts | 52° |
| 2026-04-30 20:10 | 53.34911 | -2.28461 | 255 ft | 120 kts | 53° |
| 2026-04-30 20:11 | 53.35552 | -2.27122 | 264 ft | 24 kts | 50° |
| 2026-04-30 20:11 | 53.35627 | -2.27090 | 268 ft | 10 kts | 322° |
| 2026-04-30 20:11 | 53.35678 | -2.27159 | 263 ft | 7 kts | 321° |
| 2026-04-30 20:12 | 53.35751 | -2.27181 | 255 ft | 7 kts | 43° |
| 2026-04-30 20:12 | 53.35786 | -2.27107 | 255 ft | 10 kts | 51° |
| 2026-04-30 20:12 | 53.35826 | -2.27007 | 256 ft | 10 kts | 59° |
| 2026-04-30 20:13 | 53.35864 | -2.26913 | 256 ft | 11 kts | 52° |
| 2026-04-30 20:13 | 53.35916 | -2.26829 | 255 ft | 10 kts | 9° |
| 2026-04-30 20:13 | 53.35976 | -2.26835 | 250 ft | 6 kts | 26° |
| 2026-04-30 20:13 | 53.36008 | -2.26836 | 250 ft | 5 kts | 330° |
| 2026-04-30 20:14 | 53.36029 | -2.26872 | 250 ft | 5 kts | 313° |
| 2026-04-30 20:14 | 53.36035 | -2.26882 | 250 ft | 0 kts | 314° |